createdAt,value
2018-04-23T00:01:26.794Z,52.64
2018-04-23T00:03:55.304Z,52.86
2018-04-23T00:06:23.765Z,52.73
2018-04-23T00:08:52.230Z,53.18
2018-04-23T00:11:20.744Z,53.34
2018-04-23T00:13:49.240Z,53.29
2018-04-23T00:16:17.706Z,53.26
2018-04-23T00:18:46.221Z,53.33
2018-04-23T00:21:14.669Z,53.18
2018-04-23T00:23:43.166Z,53.41
2018-04-23T00:26:11.611Z,53.17
2018-04-23T00:28:40.111Z,53.50
2018-04-23T00:31:08.562Z,53.57
2018-04-23T00:33:37.046Z,53.72
2018-04-23T00:36:05.526Z,53.75
2018-04-23T00:38:34.240Z,54.02
2018-04-23T00:41:02.739Z,54.03
2018-04-23T00:43:31.248Z,54.14
2018-04-23T00:45:59.739Z,54.50
2018-04-23T00:48:28.224Z,54.50
2018-04-23T00:50:56.706Z,54.67
2018-04-23T00:53:36.876Z,54.77
2018-04-23T00:56:05.388Z,55.11
2018-04-23T00:58:33.864Z,54.99
2018-04-23T01:01:02.345Z,55.03
2018-04-23T01:03:30.857Z,55.21
2018-04-23T01:05:59.316Z,55.32
2018-04-23T01:08:27.817Z,55.32
2018-04-23T01:10:56.279Z,55.51
2018-04-23T01:13:24.780Z,55.37
2018-04-23T01:15:53.245Z,55.60
2018-04-23T01:18:21.751Z,55.35
2018-04-23T01:20:50.204Z,55.42
2018-04-23T01:23:18.685Z,55.87
2018-04-23T01:25:47.184Z,55.75
2018-04-23T01:28:15.642Z,55.81
2018-04-23T01:30:44.106Z,55.85
2018-04-23T01:33:12.618Z,55.89
2018-04-23T01:35:41.076Z,55.82
2018-04-23T01:38:09.574Z,55.77
2018-04-23T01:40:38.069Z,55.96
2018-04-23T01:43:06.590Z,55.97
2018-04-23T01:45:35.088Z,56.11
2018-04-23T01:48:03.596Z,56.46
2018-04-23T01:50:32.108Z,56.68
2018-04-23T01:53:00.630Z,56.54
2018-04-23T01:55:29.172Z,56.70
2018-04-23T01:57:57.644Z,56.55
2018-04-23T02:00:26.116Z,56.61
2018-04-23T02:02:54.604Z,57.45
2018-04-23T02:05:23.138Z,57.31
2018-04-23T02:07:51.643Z,58.24
2018-04-23T02:10:20.105Z,58.29
2018-04-23T02:12:48.596Z,58.56
2018-04-23T02:15:17.090Z,58.40
2018-04-23T02:17:45.565Z,58.50
2018-04-23T02:20:14.076Z,58.21
2018-04-23T02:22:42.589Z,58.24
2018-04-23T02:25:11.089Z,57.89
2018-04-23T02:27:39.552Z,57.88
2018-04-23T02:30:08.003Z,57.73
2018-04-23T02:32:36.467Z,57.72
2018-04-23T02:35:05.021Z,57.58
2018-04-23T02:37:33.512Z,57.69
2018-04-23T02:40:02.005Z,57.41
2018-04-23T02:42:30.509Z,57.53
2018-04-23T02:44:58.975Z,57.69
2018-04-23T02:47:27.453Z,57.66
2018-04-23T02:49:55.946Z,57.63
2018-04-23T02:52:24.440Z,57.69
2018-04-23T02:54:52.912Z,57.89
2018-04-23T02:57:21.452Z,58.32
2018-04-23T02:59:49.918Z,58.54
2018-04-23T03:02:18.445Z,58.07
2018-04-23T03:04:46.933Z,57.76
2018-04-23T03:07:15.397Z,57.96
2018-04-23T03:09:43.908Z,58.21
2018-04-23T03:12:12.364Z,58.24
2018-04-23T03:14:40.859Z,58.16
2018-04-23T03:17:09.321Z,58.80
2018-04-23T03:19:37.824Z,58.96
2018-04-23T03:22:06.280Z,58.75
2018-04-23T03:24:34.780Z,58.60
2018-04-23T03:27:03.279Z,58.61
2018-04-23T03:29:31.749Z,58.55
2018-04-23T03:32:00.261Z,58.99
2018-04-23T03:34:28.782Z,59.18
2018-04-23T03:36:57.277Z,59.27
2018-04-23T03:39:25.747Z,59.28
2018-04-23T03:41:54.256Z,59.19
2018-04-23T03:44:22.724Z,59.18
2018-04-23T03:46:51.250Z,59.13
2018-04-23T03:49:19.708Z,58.95
2018-04-23T03:51:48.211Z,58.87
2018-04-23T03:54:16.714Z,58.88
2018-04-23T03:56:45.212Z,58.89
2018-04-23T03:59:13.694Z,58.73
2018-04-23T04:01:42.243Z,58.62
2018-04-23T04:04:10.704Z,58.16
2018-04-23T04:06:39.192Z,57.82
2018-04-23T04:09:07.708Z,57.70
2018-04-23T04:11:36.172Z,57.35
2018-04-23T04:14:16.472Z,57.12
2018-04-23T04:16:59.717Z,56.73
2018-04-23T04:19:28.255Z,55.81
2018-04-23T04:21:56.748Z,55.26
2018-04-23T04:24:25.240Z,54.58
2018-04-23T04:26:53.716Z,53.51
2018-04-23T04:29:23.062Z,52.76
2018-04-23T04:31:51.561Z,52.44
2018-04-23T04:34:20.033Z,51.31
2018-04-23T04:36:48.553Z,51.04
2018-04-23T04:39:17.018Z,50.32
2018-04-23T04:41:45.476Z,50.09
2018-04-23T04:44:14.000Z,49.49
2018-04-23T04:46:42.456Z,49.69
2018-04-23T04:49:10.916Z,49.61
2018-04-23T04:51:40.313Z,49.46
2018-04-23T04:54:08.780Z,48.78
2018-04-23T04:56:37.273Z,48.55
2018-04-23T04:59:05.751Z,48.02
2018-04-23T05:01:34.289Z,47.35
2018-04-23T05:04:02.765Z,46.68
2018-04-23T05:06:31.264Z,46.85
2018-04-23T05:08:59.788Z,46.40
2018-04-23T05:11:28.269Z,45.42
2018-04-23T05:13:56.783Z,44.66
2018-04-23T05:16:25.257Z,44.05
2018-04-23T05:18:53.727Z,43.49
2018-04-23T05:21:22.252Z,42.52
2018-04-23T05:23:50.829Z,42.66
2018-04-23T05:26:19.273Z,40.87
2018-04-23T05:28:47.789Z,40.10
2018-04-23T05:31:16.337Z,40.21
2018-04-23T05:33:45.303Z,40.30
2018-04-23T05:36:14.385Z,39.73
2018-04-23T05:38:42.878Z,39.51
2018-04-23T05:41:11.406Z,39.25
2018-04-23T05:43:39.903Z,38.69
2018-04-23T05:46:08.408Z,38.77
2018-04-23T05:48:36.845Z,38.11
2018-04-23T05:51:05.347Z,37.43
2018-04-23T05:53:33.881Z,37.37
2018-04-23T05:56:02.430Z,37.25
2018-04-23T05:58:30.918Z,37.04
2018-04-23T06:00:59.428Z,37.06
2018-04-23T06:03:27.892Z,36.98
2018-04-23T06:05:56.360Z,35.87
2018-04-23T06:08:24.846Z,35.57
2018-04-23T06:10:53.336Z,35.74
2018-04-23T06:13:21.888Z,36.38
2018-04-23T06:15:50.356Z,35.62
2018-04-23T06:18:18.879Z,35.44
2018-04-23T06:20:47.399Z,35.65
2018-04-23T06:23:15.930Z,34.33
2018-04-23T06:25:44.485Z,34.11
2018-04-23T06:28:12.956Z,33.73
2018-04-23T06:30:41.510Z,33.19
2018-04-23T06:33:09.982Z,33.32
2018-04-23T06:35:38.493Z,34.14
2018-04-23T06:38:06.960Z,33.88
2018-04-23T06:40:35.473Z,34.00
2018-04-23T06:43:03.973Z,33.68
2018-04-23T06:45:33.638Z,33.91
2018-04-23T06:48:02.246Z,34.00
2018-04-23T06:50:30.739Z,33.89
2018-04-23T06:52:59.303Z,33.21
2018-04-23T06:55:27.783Z,33.05
2018-04-23T06:57:56.295Z,32.46
2018-04-23T07:00:25.384Z,32.47
2018-04-23T07:02:53.937Z,32.85
2018-04-23T07:05:22.437Z,32.63
2018-04-23T07:07:50.952Z,32.07
2018-04-23T07:10:19.482Z,32.04
2018-04-23T07:12:47.958Z,31.46
2018-04-23T07:15:16.467Z,32.25
2018-04-23T07:17:44.975Z,31.82
2018-04-23T07:20:13.454Z,31.91
2018-04-23T07:22:41.914Z,31.11
2018-04-23T07:25:10.417Z,30.80
2018-04-23T07:27:38.982Z,31.46
2018-04-23T07:30:07.481Z,31.10
2018-04-23T07:32:35.985Z,30.38
2018-04-23T07:35:04.487Z,31.45
2018-04-23T07:37:32.995Z,30.29
2018-04-23T07:40:01.764Z,29.88
2018-04-23T07:42:31.226Z,29.18
2018-04-23T07:44:59.687Z,29.27
2018-04-23T07:47:28.183Z,27.74
2018-04-23T07:49:56.649Z,28.68
2018-04-23T07:52:25.141Z,28.37
2018-04-23T07:54:53.799Z,27.92
2018-04-23T07:57:22.228Z,28.58
2018-04-23T07:59:50.793Z,28.22
2018-04-23T08:02:19.290Z,27.99
2018-04-23T08:04:47.736Z,28.35
2018-04-23T08:07:16.224Z,27.62
2018-04-23T08:09:44.786Z,28.08
2018-04-23T08:12:13.310Z,27.82
2018-04-23T08:14:41.809Z,26.64
2018-04-23T08:17:10.309Z,24.44
2018-04-23T08:22:00.981Z,24.53
2018-04-23T08:24:29.472Z,23.94
2018-04-23T08:26:57.957Z,24.04
2018-04-23T08:29:26.565Z,24.39
2018-04-23T08:31:55.236Z,24.92
2018-04-23T08:34:23.704Z,24.73
2018-04-23T08:36:52.228Z,24.60
2018-04-23T08:39:20.681Z,24.99
2018-04-23T08:41:49.194Z,23.81
2018-04-23T08:44:17.707Z,25.01
2018-04-23T08:46:46.229Z,24.29
2018-04-23T08:49:14.742Z,23.19
2018-04-23T08:51:43.214Z,23.17
2018-04-23T08:54:11.687Z,23.63
2018-04-23T08:56:40.184Z,23.07
2018-04-23T08:59:08.680Z,23.13
2018-04-23T09:01:37.148Z,21.60
2018-04-23T09:04:05.653Z,22.89
2018-04-23T09:06:34.096Z,23.06
2018-04-23T09:09:02.569Z,22.80
2018-04-23T09:11:31.116Z,21.56
2018-04-23T09:13:59.585Z,21.86
2018-04-23T09:16:28.040Z,22.25
2018-04-23T09:18:56.535Z,22.84
2018-04-23T09:21:25.047Z,22.45
2018-04-23T09:23:53.519Z,21.22
2018-04-23T09:26:21.991Z,22.14
2018-04-23T09:28:50.499Z,21.63
2018-04-23T09:31:18.980Z,21.46
2018-04-23T09:33:47.464Z,20.91
2018-04-23T09:36:15.956Z,21.61
2018-04-23T09:38:44.630Z,21.40
2018-04-23T09:41:13.212Z,21.19
2018-04-23T09:43:41.700Z,20.46
2018-04-23T09:46:10.180Z,22.32
2018-04-23T09:48:38.685Z,21.35
2018-04-23T09:51:07.172Z,19.06
2018-04-23T09:53:35.678Z,19.90
2018-04-23T09:56:04.195Z,20.57
2018-04-23T09:58:32.679Z,20.70
2018-04-23T10:01:01.189Z,18.58
2018-04-23T10:03:35.085Z,18.25
2018-04-23T10:06:03.641Z,18.65
2018-04-23T10:08:32.106Z,18.78
2018-04-23T10:11:00.615Z,19.26
2018-04-23T10:13:29.077Z,19.28
2018-04-23T10:15:57.602Z,18.78
2018-04-23T10:18:26.074Z,18.84
2018-04-23T10:20:54.640Z,17.68
2018-04-23T10:23:23.065Z,18.59
2018-04-23T10:25:51.597Z,18.50
2018-04-23T10:28:20.081Z,17.92
2018-04-23T10:30:48.565Z,18.51
2018-04-23T10:33:17.052Z,17.90
2018-04-23T10:35:45.744Z,18.09
2018-04-23T10:38:14.224Z,18.67
2018-04-23T10:40:42.970Z,17.43
2018-04-23T10:43:11.433Z,18.70
2018-04-23T10:45:42.585Z,18.74
2018-04-23T10:48:12.038Z,19.38
2018-04-23T10:50:40.675Z,19.49
2018-04-23T10:53:09.109Z,18.42
2018-04-23T10:55:37.593Z,18.01
2018-04-23T10:58:07.111Z,17.30
2018-04-23T11:00:35.973Z,17.36
2018-04-23T11:03:04.456Z,18.25
2018-04-23T11:05:32.956Z,18.88
2018-04-23T11:08:01.463Z,18.60
2018-04-23T11:10:30.220Z,18.72
2018-04-23T11:12:58.736Z,18.65
2018-04-23T11:15:27.216Z,17.58
2018-04-23T11:17:57.348Z,17.96
2018-04-23T11:20:29.460Z,18.18
2018-04-23T11:22:58.387Z,18.38
2018-04-23T11:25:26.853Z,18.99
2018-04-23T11:27:55.382Z,18.94
2018-04-23T11:30:23.878Z,19.48
2018-04-23T11:32:52.369Z,17.75
2018-04-23T11:35:20.882Z,17.29
2018-04-23T11:37:49.345Z,16.64
2018-04-23T11:40:17.811Z,16.89
2018-04-23T11:42:46.309Z,17.12
2018-04-23T11:45:14.797Z,17.26
2018-04-23T11:47:43.344Z,17.24
2018-04-23T11:50:12.481Z,17.24
2018-04-23T11:52:41.068Z,17.20
2018-04-23T11:55:09.555Z,17.17
2018-04-23T11:57:38.044Z,16.88
2018-04-23T12:00:06.512Z,16.54
2018-04-23T12:02:35.025Z,16.95
2018-04-23T12:05:03.536Z,16.30
2018-04-23T12:07:32.085Z,16.55
2018-04-23T12:10:00.549Z,16.75
2018-04-23T12:12:29.016Z,16.96
2018-04-23T12:14:57.505Z,17.18
2018-04-23T12:17:25.993Z,16.48
2018-04-23T12:19:54.446Z,16.64
2018-04-23T12:22:22.969Z,16.61
2018-04-23T12:24:51.489Z,16.70
2018-04-23T12:27:19.971Z,16.58
2018-04-23T12:29:48.484Z,16.32
2018-04-23T12:32:17.009Z,15.61
2018-04-23T12:34:45.483Z,15.43
2018-04-23T12:37:14.013Z,16.05
2018-04-23T12:39:42.469Z,15.92
2018-04-23T12:42:10.961Z,16.07
2018-04-23T12:44:39.409Z,16.04
2018-04-23T12:47:07.914Z,16.08
2018-04-23T12:49:36.375Z,15.61
2018-04-23T12:52:04.878Z,14.58
2018-04-23T12:54:33.367Z,14.85
2018-04-23T12:57:01.874Z,14.58
2018-04-23T12:59:30.399Z,14.61
2018-04-23T13:01:58.868Z,14.27
2018-04-23T13:04:27.359Z,13.94
2018-04-23T13:06:55.888Z,14.64
2018-04-23T13:09:24.416Z,14.15
2018-04-23T13:11:53.042Z,14.59
2018-04-23T13:14:21.601Z,13.72
2018-04-23T13:16:50.094Z,13.96
2018-04-23T13:19:18.592Z,14.03
2018-04-23T13:21:47.044Z,14.14
2018-04-23T13:24:15.525Z,13.83
2018-04-23T13:26:44.018Z,13.66
2018-04-23T13:29:12.597Z,13.35
2018-04-23T13:31:41.117Z,12.85
2018-04-23T13:34:09.633Z,13.04
2018-04-23T13:36:38.084Z,13.01
2018-04-23T13:39:06.669Z,12.96
2018-04-23T13:41:35.188Z,13.07
2018-04-23T13:44:03.734Z,13.25
2018-04-23T13:46:32.248Z,13.02
2018-04-23T13:49:00.762Z,13.18
2018-04-23T13:51:29.268Z,13.24
2018-04-23T13:53:57.756Z,12.82
2018-04-23T13:56:26.286Z,12.85
2018-04-23T13:58:54.761Z,13.01
2018-04-23T14:01:23.193Z,13.87
2018-04-23T14:03:51.673Z,14.30
2018-04-23T14:06:20.196Z,14.85
2018-04-23T14:08:48.708Z,14.18
2018-04-23T14:11:17.203Z,14.31
2018-04-23T14:13:45.800Z,14.91
2018-04-23T14:16:14.351Z,15.16
2018-04-23T14:18:42.807Z,15.03
2018-04-23T14:21:11.327Z,14.82
2018-04-23T14:23:39.840Z,14.92
2018-04-23T14:26:09.124Z,15.16
2018-04-23T14:28:37.777Z,15.00
2018-04-23T14:31:06.304Z,14.66
2018-04-23T14:33:35.022Z,14.86
2018-04-23T14:36:03.479Z,15.04
2018-04-23T14:38:31.983Z,15.61
2018-04-23T14:41:00.438Z,15.53
2018-04-23T14:43:29.001Z,15.74
2018-04-23T14:45:57.488Z,15.76
2018-04-23T14:48:25.968Z,15.85
2018-04-23T14:50:54.650Z,16.29
2018-04-23T14:53:23.169Z,16.62
2018-04-23T14:55:51.656Z,15.89
2018-04-23T14:58:20.104Z,16.09
2018-04-23T15:00:48.610Z,16.73
2018-04-23T15:03:17.108Z,17.24
2018-04-23T15:05:45.605Z,16.98
2018-04-23T15:08:14.088Z,17.54
2018-04-23T15:10:42.583Z,18.36
2018-04-23T15:13:11.084Z,18.59
2018-04-23T15:15:39.572Z,18.69
2018-04-23T15:18:08.061Z,18.76
2018-04-23T15:20:36.553Z,18.41
2018-04-23T15:23:05.028Z,18.82
2018-04-23T15:25:33.491Z,20.14
2018-04-23T15:28:01.997Z,19.62
2018-04-23T15:30:30.452Z,18.43
2018-04-23T15:32:58.896Z,18.81
2018-04-23T15:35:27.380Z,18.81
2018-04-23T15:37:55.845Z,19.67
2018-04-23T15:40:24.340Z,18.25
2018-04-23T15:42:52.826Z,18.71
2018-04-23T15:45:21.280Z,18.50
2018-04-23T15:47:49.758Z,18.50
2018-04-23T15:50:18.209Z,19.31
2018-04-23T15:52:46.684Z,20.05
2018-04-23T15:55:15.131Z,19.72
2018-04-23T15:57:43.605Z,19.32
2018-04-23T16:00:12.076Z,19.81
2018-04-23T16:02:40.560Z,19.15
2018-04-23T16:05:09.004Z,20.41
2018-04-23T16:07:37.487Z,22.27
2018-04-23T16:10:05.980Z,22.60
2018-04-23T16:12:34.468Z,22.71
2018-04-23T16:15:02.916Z,22.44
2018-04-23T16:17:31.361Z,22.54
2018-04-23T16:19:59.856Z,22.55
2018-04-23T16:22:28.359Z,22.62
2018-04-23T16:24:56.841Z,23.33
2018-04-23T16:27:25.331Z,23.67
2018-04-23T16:29:53.781Z,25.35
2018-04-23T16:32:22.237Z,26.03
2018-04-23T16:34:50.746Z,26.39
2018-04-23T16:37:19.236Z,26.85
2018-04-23T16:39:47.701Z,26.61
2018-04-23T16:42:16.215Z,27.30
2018-04-23T16:44:44.709Z,27.45
2018-04-23T16:47:13.200Z,27.69
2018-04-23T16:49:41.744Z,28.19
2018-04-23T16:52:10.200Z,28.13
2018-04-23T16:54:38.707Z,28.29
2018-04-23T16:57:07.199Z,28.53
2018-04-23T16:59:35.742Z,28.41
2018-04-23T17:02:04.256Z,28.45
2018-04-23T17:04:32.716Z,28.53
2018-04-23T17:07:01.228Z,28.76
2018-04-23T17:09:29.712Z,29.16
2018-04-23T17:11:58.172Z,29.80
2018-04-23T17:14:26.644Z,29.65
2018-04-23T17:16:55.144Z,29.40
2018-04-23T17:19:23.586Z,30.41
2018-04-23T17:21:52.079Z,30.67
2018-04-23T17:24:20.551Z,30.57
2018-04-23T17:26:49.028Z,30.88
2018-04-23T17:29:17.516Z,31.09
2018-04-23T17:31:45.973Z,31.26
2018-04-23T17:34:14.411Z,31.71
2018-04-23T17:36:42.888Z,32.15
2018-04-23T17:39:11.377Z,32.26
2018-04-23T17:41:39.965Z,32.02
2018-04-23T17:44:08.380Z,32.18
2018-04-23T17:46:36.876Z,31.98
2018-04-23T17:49:05.338Z,32.38
2018-04-23T17:51:33.816Z,32.91
2018-04-23T17:54:02.308Z,32.91
2018-04-23T17:56:30.783Z,32.60
2018-04-23T17:58:59.224Z,32.63
2018-04-23T18:01:27.703Z,32.62
2018-04-23T18:03:56.184Z,32.51
2018-04-23T18:06:24.624Z,32.41
2018-04-23T18:08:53.117Z,32.27
2018-04-23T18:11:21.564Z,32.33
2018-04-23T18:13:50.048Z,32.33
2018-04-23T18:16:18.605Z,32.58
2018-04-23T18:18:47.053Z,32.19
2018-04-23T18:21:15.503Z,32.13
2018-04-23T18:23:43.997Z,32.34
2018-04-23T18:26:12.472Z,32.80
2018-04-23T18:28:40.889Z,32.63
2018-04-23T18:31:09.372Z,33.18
2018-04-23T18:33:37.855Z,33.02
2018-04-23T18:36:06.300Z,33.13
2018-04-23T18:38:34.741Z,33.02
2018-04-23T18:41:03.216Z,32.86
2018-04-23T18:43:31.656Z,33.47
2018-04-23T18:46:00.096Z,33.81
2018-04-23T18:48:28.584Z,33.59
2018-04-23T18:50:57.051Z,33.74
2018-04-23T18:53:25.528Z,33.58
2018-04-23T18:55:54.017Z,33.96
2018-04-23T18:58:22.496Z,33.44
2018-04-23T19:00:50.936Z,34.54
2018-04-23T19:03:19.424Z,33.71
2018-04-23T19:05:47.907Z,33.75
2018-04-23T19:08:16.389Z,33.29
2018-04-23T19:10:44.880Z,33.14
2018-04-23T19:13:13.316Z,33.26
2018-04-23T19:15:41.787Z,33.40
2018-04-23T19:18:10.265Z,33.53
2018-04-23T19:20:38.756Z,34.30
2018-04-23T19:23:07.243Z,34.22
2018-04-23T19:25:35.685Z,34.39
2018-04-23T19:28:04.193Z,34.56
2018-04-23T19:30:32.672Z,34.76
2018-04-23T19:33:01.166Z,34.58
2018-04-23T19:35:29.652Z,34.76
2018-04-23T19:37:58.140Z,34.90
2018-04-23T19:40:26.633Z,35.26
2018-04-23T19:42:55.128Z,35.27
2018-04-23T19:45:23.626Z,35.20
2018-04-23T19:47:52.082Z,35.31
2018-04-23T19:50:20.561Z,35.73
2018-04-23T19:52:49.020Z,35.95
2018-04-23T19:55:17.612Z,36.39
2018-04-23T19:57:46.024Z,36.96
2018-04-23T20:00:14.511Z,37.85
2018-04-23T20:02:42.947Z,38.57
2018-04-23T20:05:11.453Z,39.33
2018-04-23T20:07:39.929Z,39.06
2018-04-23T20:10:08.412Z,39.49
2018-04-23T20:12:36.898Z,39.62
2018-04-23T20:15:05.332Z,40.08
2018-04-23T20:17:33.842Z,40.28
2018-04-23T20:20:02.303Z,40.60
2018-04-23T20:22:30.749Z,40.67
2018-04-23T20:24:59.229Z,40.84
2018-04-23T20:27:27.713Z,41.54
2018-04-23T20:29:56.158Z,41.22
2018-04-23T20:32:24.617Z,41.50
2018-04-23T20:34:53.106Z,41.83
2018-04-23T20:37:21.585Z,41.69
2018-04-23T20:39:50.041Z,42.11
2018-04-23T20:42:18.534Z,42.10
2018-04-23T20:44:46.973Z,42.14
2018-04-23T20:47:15.464Z,42.51
2018-04-23T20:49:43.922Z,42.70
2018-04-23T20:52:12.359Z,43.13
2018-04-23T20:54:40.836Z,43.03
2018-04-23T20:57:09.337Z,43.59
2018-04-23T20:59:37.795Z,43.57
2018-04-23T21:02:06.315Z,43.62
2018-04-23T21:04:34.821Z,43.44
2018-04-23T21:07:03.276Z,43.87
2018-04-23T21:09:31.776Z,44.04
2018-04-23T21:12:00.272Z,44.29
2018-04-23T21:14:28.708Z,44.32
2018-04-23T21:16:57.177Z,44.56
2018-04-23T21:19:25.621Z,44.23
2018-04-23T21:21:54.104Z,44.47
2018-04-23T21:24:22.584Z,44.65
2018-04-23T21:26:51.028Z,44.28
2018-04-23T21:29:19.509Z,44.71
2018-04-23T21:31:47.980Z,44.71
2018-04-23T21:34:16.422Z,44.58
2018-04-23T21:36:44.877Z,44.71
2018-04-23T21:39:13.370Z,45.01
2018-04-23T21:41:41.846Z,45.05
2018-04-23T21:44:10.302Z,45.38
2018-04-23T21:46:38.806Z,45.45
2018-04-23T21:49:07.244Z,45.53
2018-04-23T21:51:35.826Z,44.88
2018-04-23T21:54:04.282Z,45.44
2018-04-23T21:56:32.729Z,45.33
2018-04-23T21:59:01.204Z,45.55
2018-04-23T22:01:29.695Z,45.79
2018-04-23T22:03:58.180Z,45.86
2018-04-23T22:06:26.621Z,45.91
2018-04-23T22:08:55.109Z,46.18
2018-04-23T22:11:23.544Z,46.06
2018-04-23T22:13:51.988Z,45.95
2018-04-23T22:16:20.460Z,46.18
2018-04-23T22:18:48.896Z,46.25
2018-04-23T22:21:17.377Z,46.21
2018-04-23T22:23:45.864Z,46.29
2018-04-23T22:26:14.309Z,46.37
2018-04-23T22:28:42.792Z,46.28
2018-04-23T22:31:11.233Z,46.13
2018-04-23T22:33:39.717Z,46.33
2018-04-23T22:36:08.169Z,46.64
2018-04-23T22:38:36.652Z,46.36
2018-04-23T22:41:05.096Z,46.14
2018-04-23T22:43:33.576Z,46.72
2018-04-23T22:46:02.037Z,47.14
2018-04-23T22:48:30.528Z,47.54
2018-04-23T22:50:58.968Z,47.47
2018-04-23T22:53:27.450Z,47.72
2018-04-23T22:55:55.903Z,47.42
2018-04-23T22:58:24.421Z,47.81
2018-04-23T23:00:52.896Z,47.86
2018-04-23T23:03:21.345Z,47.97
2018-04-23T23:05:50.108Z,48.07
2018-04-23T23:08:18.559Z,48.32
2018-04-23T23:10:47.010Z,48.45
2018-04-23T23:13:15.606Z,48.36
2018-04-23T23:15:44.068Z,49.15
2018-04-23T23:18:12.548Z,48.93
2018-04-23T23:20:41.038Z,49.24
2018-04-23T23:23:09.519Z,48.93
2018-04-23T23:25:37.976Z,48.06
2018-04-23T23:28:06.478Z,48.04
2018-04-23T23:30:34.935Z,48.02
2018-04-23T23:33:03.445Z,47.88
2018-04-23T23:35:31.908Z,48.41
2018-04-23T23:38:00.376Z,48.25
2018-04-23T23:40:28.888Z,48.30
2018-04-23T23:42:57.348Z,48.83
2018-04-23T23:45:25.829Z,48.64
2018-04-23T23:47:54.271Z,49.43
2018-04-23T23:50:22.787Z,49.40
2018-04-23T23:52:51.271Z,49.78
2018-04-23T23:55:19.700Z,49.70
2018-04-23T23:57:48.192Z,49.61
